Time;durP1;ratioP1;P1;durP2;ratioP2;P2;SDS_P1;SDS_P2;PMS_P1;PMS_P2;Temp;Humidity;BMP_temperature;BMP_pressure;BME280_temperature;BME280_humidity;BME280_pressure;Samples;Min_cycle;Max_cycle;Signal;HPM_P1;HPM_P2
2021/05/24 00:02:24;;;;;;;11.80;5.87;;;;;;;8.59;70.63;99310.41;2150239;82;20931;-80
2021/05/24 00:05:25;;;;;;;13.73;5.00;;;;;;;8.59;70.73;99302.59;2150393;82;21318;-80
2021/05/24 00:08:27;;;;;;;9.57;5.67;;;;;;;8.57;70.52;99304.28;2150260;82;21021;-80
2021/05/24 00:11:28;;;;;;;30.43;7.80;;;;;;;8.54;70.44;99307.22;2150067;83;20998;-80
2021/05/24 00:18:06;;;;;;;13.97;6.13;;;;;;;8.39;70.32;99310.28;2150314;83;20974;-80
2021/05/24 00:21:07;;;;;;;10.23;5.83;;;;;;;8.30;70.42;99314.77;2149963;83;20998;-80
2021/05/24 00:24:08;;;;;;;7.23;5.40;;;;;;;8.24;70.26;99321.11;2150076;83;21009;-81
2021/05/24 00:27:09;;;;;;;10.20;5.53;;;;;;;8.18;70.40;99323.53;2150015;82;20981;-81
2021/05/24 00:30:10;;;;;;;10.13;5.43;;;;;;;8.10;70.45;99332.83;2150177;83;21401;-79
2021/05/24 00:33:11;;;;;;;8.70;5.40;;;;;;;8.03;70.26;99343.00;2150037;82;20958;-80
2021/05/24 00:36:14;;;;;;;11.17;5.93;;;;;;;7.93;70.34;99344.03;2132863;83;20942;-79
2021/05/24 00:39:15;;;;;;;9.20;5.90;;;;;;;7.88;70.65;99340.83;2150158;82;21034;-79
2021/05/24 00:42:16;;;;;;;11.37;5.63;;;;;;;7.85;70.99;99342.03;2150226;83;20922;-79
2021/05/24 00:45:17;;;;;;;9.43;6.20;;;;;;;7.78;70.97;99347.84;2150261;83;20982;-80
2021/05/24 00:48:18;;;;;;;12.57;6.93;;;;;;;7.67;71.10;99331.92;2150363;83;20958;-79
2021/05/24 00:51:19;;;;;;;12.17;5.90;;;;;;;7.56;71.38;99343.28;2150196;83;21330;-79
2021/05/24 00:54:20;;;;;;;13.17;7.10;;;;;;;7.48;71.47;99349.95;2150349;83;20966;-79
2021/05/24 00:57:21;;;;;;;13.03;6.90;;;;;;;7.46;71.97;99358.52;2150402;82;21017;-79
2021/05/24 01:00:23;;;;;;;12.53;7.30;;;;;;;7.43;71.84;99350.63;2150266;83;21073;-83
2021/05/24 01:03:24;;;;;;;12.83;6.77;;;;;;;7.42;72.16;99351.05;2150370;82;21065;-82
2021/05/24 01:06:25;;;;;;;17.67;6.87;;;;;;;7.44;72.20;99367.56;2150548;83;20985;-80
2021/05/24 01:09:26;;;;;;;11.03;6.93;;;;;;;7.41;72.18;99363.57;2150537;82;20950;-84
2021/05/24 01:12:27;;;;;;;10.77;7.30;;;;;;;7.39;72.20;99363.94;2150548;83;20906;-82
2021/05/24 01:15:28;;;;;;;11.33;6.80;;;;;;;7.39;72.25;99363.05;2150517;82;21039;-82
2021/05/24 01:18:29;;;;;;;16.50;7.53;;;;;;;7.33;72.50;99366.34;2150270;83;21194;-81
2021/05/24 01:21:30;;;;;;;14.87;8.17;;;;;;;7.28;72.59;99368.78;2150370;83;20965;-82
2021/05/24 01:24:31;;;;;;;14.17;7.63;;;;;;;7.26;72.97;99363.95;2150430;82;20969;-82
2021/05/24 01:27:32;;;;;;;14.13;7.97;;;;;;;7.24;72.93;99363.44;2150412;83;20941;-81
2021/05/24 01:30:33;;;;;;;19.83;7.97;;;;;;;7.18;72.89;99370.61;2150328;83;20994;-82
2021/05/24 01:33:35;;;;;;;15.73;8.47;;;;;;;7.17;73.12;99371.84;2150387;82;20982;-82
2021/05/24 01:36:36;;;;;;;14.20;8.63;;;;;;;7.12;72.98;99364.33;2150393;82;21422;-82
2021/05/24 01:39:37;;;;;;;12.60;8.70;;;;;;;7.06;73.17;99367.59;2150344;82;20981;-82
2021/05/24 01:42:38;;;;;;;12.57;8.07;;;;;;;7.02;73.40;99372.22;2150468;83;20953;-82
2021/05/24 01:45:39;;;;;;;15.40;8.40;;;;;;;7.01;73.42;99375.23;2150325;82;21397;-82
2021/05/24 01:48:41;;;;;;;12.10;9.27;;;;;;;7.01;73.42;99375.23;2150299;83;20926;-82
2021/05/24 01:51:42;;;;;;;14.53;9.50;;;;;;;7.01;73.75;99383.43;2150388;82;21445;-82
2021/05/24 01:54:43;;;;;;;14.70;9.40;;;;;;;7.03;74.09;99381.35;2150298;83;21218;-81
2021/05/24 01:57:45;;;;;;;10.73;8.60;;;;;;;7.10;74.15;99380.27;2150191;82;21376;-80
2021/05/24 02:00:45;;;;;;;16.53;8.87;;;;;;;7.13;74.26;99380.37;2148268;82;21053;-81
2021/05/24 02:03:46;;;;;;;12.00;8.90;;;;;;;7.14;74.11;99375.64;2148251;82;20966;-80
2021/05/24 02:06:47;;;;;;;13.13;8.63;;;;;;;7.18;74.21;99382.70;2148317;83;20966;-80
2021/05/24 02:09:48;;;;;;;26.13;9.10;;;;;;;7.21;74.46;99377.61;2147793;82;20938;-80
2021/05/24 02:12:49;;;;;;;15.27;8.07;;;;;;;7.21;74.24;99377.20;2148349;83;20947;-81
2021/05/24 02:15:50;;;;;;;21.30;8.33;;;;;;;7.19;73.88;99381.88;2148311;82;20978;-81
2021/05/24 02:18:51;;;;;;;14.13;8.07;;;;;;;7.15;73.83;99382.19;2148281;83;20934;-81
2021/05/24 02:21:52;;;;;;;38.77;9.70;;;;;;;7.09;73.83;99377.20;2148008;83;20907;-80
2021/05/24 02:24:53;;;;;;;11.40;8.03;;;;;;;7.04;73.85;99374.45;2148356;83;20994;-81
2021/05/24 02:27:54;;;;;;;12.53;8.27;;;;;;;6.97;73.78;99378.55;2148365;82;21355;-80
2021/05/24 02:30:55;;;;;;;19.23;7.80;;;;;;;6.93;74.04;99383.13;2148400;82;20993;-79
2021/05/24 02:33:56;;;;;;;11.37;7.80;;;;;;;6.82;73.77;99379.28;2148308;83;20938;-79
2021/05/24 02:36:57;;;;;;;13.60;7.83;;;;;;;6.74;73.71;99385.91;2148198;83;20974;-80
2021/05/24 02:39:58;;;;;;;17.20;7.43;;;;;;;6.69;73.78;99384.86;2148213;82;20966;-80
2021/05/24 02:42:59;;;;;;;11.40;6.60;;;;;;;6.64;73.93;99384.70;2148079;83;20958;-80
2021/05/24 02:46:00;;;;;;;10.53;6.83;;;;;;;6.54;74.18;99386.50;2148286;82;21038;-80
2021/05/24 02:49:01;;;;;;;19.63;7.73;;;;;;;6.54;74.18;99386.50;2148128;83;20953;-81
2021/05/24 02:52:02;;;;;;;9.27;7.50;;;;;;;6.53;74.04;99386.44;2148367;82;20938;-81
2021/05/24 02:55:03;;;;;;;11.77;7.30;;;;;;;6.49;73.88;99384.15;2148128;82;21330;-79
2021/05/24 02:58:04;;;;;;;11.33;7.13;;;;;;;6.47;74.03;99382.33;2148127;83;20942;-79
2021/05/24 03:01:05;;;;;;;10.13;6.70;;;;;;;6.47;73.91;99399.19;2148143;82;21093;-82
2021/05/24 03:04:08;;;;;;;13.40;7.10;;;;;;;6.47;73.90;99401.36;2148211;82;20958;-81
2021/05/24 03:07:08;;;;;;;26.57;7.73;;;;;;;6.47;73.94;99406.97;2148325;82;21034;-81
2021/05/24 03:10:09;;;;;;;25.63;7.57;;;;;;;6.49;73.82;99411.80;2148124;83;21008;-81
2021/05/24 03:13:10;;;;;;;12.37;6.43;;;;;;;6.52;73.81;99414.50;2148272;83;20919;-81
2021/05/24 03:16:11;;;;;;;10.23;6.17;;;;;;;6.52;73.67;99420.57;2148140;82;21034;-82
2021/05/24 03:19:12;;;;;;;10.37;6.87;;;;;;;6.52;73.41;99419.69;2148214;83;20931;-81
2021/05/24 03:22:13;;;;;;;12.00;8.40;;;;;;;6.48;73.51;99414.80;2148186;83;21002;-81
2021/05/24 03:25:14;;;;;;;10.07;6.07;;;;;;;6.45;73.41;99417.69;2148054;83;20946;-80
2021/05/24 03:28:15;;;;;;;13.23;6.40;;;;;;;6.49;73.47;99422.17;2148195;82;21346;-80
2021/05/24 03:31:16;;;;;;;9.03;6.07;;;;;;;6.47;73.21;99426.41;2148052;83;21022;-80
2021/05/24 03:34:17;;;;;;;11.03;5.97;;;;;;;6.46;73.23;99419.05;2148245;82;21026;-80
2021/05/24 03:37:18;;;;;;;12.80;6.53;;;;;;;6.48;73.37;99426.88;2148175;83;20974;-80
2021/05/24 03:40:19;;;;;;;10.33;5.67;;;;;;;6.48;73.38;99429.48;2148127;83;20986;-81
2021/05/24 03:43:21;;;;;;;9.27;6.27;;;;;;;6.53;73.44;99435.72;2148085;82;20946;-80
2021/05/24 03:46:22;;;;;;;8.97;5.73;;;;;;;6.53;73.72;99439.61;2148377;82;21017;-80
2021/05/24 03:49:23;;;;;;;11.03;5.97;;;;;;;6.56;73.86;99450.98;2148286;83;20967;-80
2021/05/24 03:52:24;;;;;;;11.20;6.27;;;;;;;6.66;73.97;99444.42;2148158;83;21357;-80
2021/05/24 03:55:25;;;;;;;13.33;6.77;;;;;;;6.66;73.97;99444.42;2148175;82;20970;-80
2021/05/24 03:58:26;;;;;;;22.43;6.40;;;;;;;6.69;73.72;99448.02;2148351;82;21006;-80
2021/05/24 04:04:30;;;;;;;9.70;6.43;;;;;;;6.90;74.41;99420.66;2134171;83;20993;-79
2021/05/24 04:07:31;;;;;;;11.37;6.93;;;;;;;7.12;74.86;99457.78;2150148;82;21073;-81
2021/05/24 04:10:35;;;;;;;8.63;6.13;;;;;;;7.44;75.68;99451.98;2150422;82;20937;-80
2021/05/24 04:13:35;;;;;;;8.13;6.27;;;;;;;8.17;74.75;99443.98;2149915;82;20990;-81
2021/05/24 04:16:35;;;;;;;17.13;7.03;;;;;;;8.17;74.75;99443.98;2150152;83;21035;-80
2021/05/24 04:19:37;;;;;;;10.67;6.50;;;;;;;8.51;74.50;99456.33;2150470;82;21291;-81
2021/05/24 04:22:38;;;;;;;27.67;7.60;;;;;;;8.90;74.41;99454.02;2150294;83;21437;-81
2021/05/24 04:25:39;;;;;;;7.70;5.90;;;;;;;9.26;73.59;99450.66;2150346;82;20989;-80
2021/05/24 04:28:40;;;;;;;34.73;7.37;;;;;;;9.57;73.11;99447.16;2150320;83;21342;-81
2021/05/24 04:31:41;;;;;;;9.20;6.07;;;;;;;9.84;72.42;99448.25;2150286;82;21005;-80
2021/05/24 04:34:42;;;;;;;13.50;7.13;;;;;;;10.20;72.73;99445.66;2150336;83;20954;-81
2021/05/24 04:37:43;;;;;;;9.30;6.83;;;;;;;10.42;71.57;99441.83;2150341;82;21140;-83
2021/05/24 04:40:43;;;;;;;14.57;6.57;;;;;;;10.68;72.27;99437.16;2150254;83;20938;-81
2021/05/24 04:43:44;;;;;;;48.33;8.65;;;;;;;12.09;73.54;99434.55;2150564;82;21018;-82
2021/05/24 04:46:46;;;;;;;8.58;6.42;;;;;;;13.80;70.74;99431.39;2150816;83;21010;-82
2021/05/24 04:49:50;;;;;;;16.17;6.37;;;;;;;15.03;66.83;99433.08;2150985;83;21030;-81
2021/05/24 04:52:49;;;;;;;21.75;7.17;;;;;;;15.82;64.45;99438.53;2150363;82;21026;-81
2021/05/24 04:55:50;;;;;;;19.07;9.63;;;;;;;16.68;59.69;99436.27;2150220;82;21010;-78
2021/05/24 04:58:51;;;;;;;19.95;10.10;;;;;;;17.61;56.89;99445.05;2149747;83;21108;-78
2021/05/24 05:01:52;;;;;;;15.68;7.15;;;;;;;17.61;56.89;99445.05;2187281;81;21005;-78
2021/05/24 05:04:54;;;;;;;24.80;10.03;;;;;;;17.51;54.77;99440.28;2149671;83;21465;-79
2021/05/24 05:07:55;;;;;;;41.28;18.77;;;;;;;17.83;53.73;99452.40;2187176;81;21449;-78
2021/05/24 05:10:56;;;;;;;54.90;24.07;;;;;;;17.99;53.35;99457.99;2149923;83;20951;-78
2021/05/24 05:13:57;;;;;;;60.25;25.23;;;;;;;18.29;52.85;99453.36;2187313;81;20982;-79
2021/05/24 05:16:58;;;;;;;49.05;23.15;;;;;;;18.55;52.00;99455.73;2150975;83;20934;-78
2021/05/24 05:19:59;;;;;;;36.68;20.88;;;;;;;18.82;51.13;99462.06;2187403;81;20910;-78
2021/05/24 05:23:00;;;;;;;22.80;14.00;;;;;;;18.91;50.60;99456.67;2149746;83;20945;-78
2021/05/24 05:26:01;;;;;;;22.75;13.08;;;;;;;19.08;49.79;99459.14;2187564;81;21026;-78
2021/05/24 05:29:02;;;;;;;10.40;7.60;;;;;;;19.25;48.39;99470.38;2150101;83;21346;-79
2021/05/24 05:32:04;;;;;;;15.72;8.58;;;;;;;19.26;48.47;99477.42;2150916;82;21005;-78
2021/05/24 05:35:05;;;;;;;10.65;7.10;;;;;;;18.81;46.12;99468.25;2150474;83;21445;-78
2021/05/24 05:38:06;;;;;;;7.92;4.62;;;;;;;18.27;48.51;99465.70;2150127;82;21022;-78
2021/05/24 05:41:07;;;;;;;9.13;5.62;;;;;;;18.38;47.65;99473.09;2150298;82;20942;-78
2021/05/24 05:44:08;;;;;;;9.53;5.72;;;;;;;17.97;48.54;99473.42;2149554;82;21049;-79
2021/05/24 05:47:09;;;;;;;6.45;4.80;;;;;;;18.06;48.61;99473.34;2149931;82;20938;-79
2021/05/24 05:50:10;;;;;;;14.60;9.73;;;;;;;18.36;49.01;99477.06;2149695;82;20989;-78
2021/05/24 05:53:11;;;;;;;10.68;5.80;;;;;;;18.56;47.87;99475.55;2150674;83;20910;-79
2021/05/24 05:56:12;;;;;;;33.85;12.45;;;;;;;18.59;47.61;99479.48;2150437;82;21041;-78
2021/05/24 05:59:13;;;;;;;33.45;9.70;;;;;;;18.59;47.22;99481.25;2186659;81;21112;-77
2021/05/24 06:02:14;;;;;;;9.28;4.22;;;;;;;18.40;46.80;99488.48;2187477;81;21029;-79
2021/05/24 06:05:15;;;;;;;16.77;4.78;;;;;;;18.33;46.59;99480.19;2188075;81;21376;-79
2021/05/24 06:08:16;;;;;;;5.62;3.58;;;;;;;18.42;47.59;99488.91;2188113;81;20997;-79
2021/05/24 06:11:17;;;;;;;10.68;4.53;;;;;;;18.44;46.63;99491.08;2187993;81;21365;-78
2021/05/24 06:14:18;;;;;;;10.95;3.92;;;;;;;18.24;46.28;99478.95;2187867;81;20922;-78
2021/05/24 06:17:18;;;;;;;13.90;9.20;;;;;;;18.20;46.93;99484.67;2188089;81;21342;-78
2021/05/24 06:20:20;;;;;;;6.47;5.62;;;;;;;18.34;46.99;99486.78;2188010;81;21152;-77
2021/05/24 06:23:21;;;;;;;7.08;3.90;;;;;;;18.65;47.10;99478.13;2187784;81;21018;-78
2021/05/24 06:26:22;;;;;;;4.97;3.47;;;;;;;18.77;46.65;99487.25;2187789;81;21002;-77
2021/05/24 06:29:25;;;;;;;5.53;3.22;;;;;;;18.87;45.82;99490.66;2188071;81;21161;-77
2021/05/24 06:32:26;;;;;;;4.92;3.25;;;;;;;18.87;45.66;99484.05;2150633;83;21091;-78
2021/05/24 06:35:26;;;;;;;19.23;4.08;;;;;;;18.97;45.89;99484.82;2164513;82;21018;-78
2021/05/24 06:38:27;;;;;;;7.87;2.80;;;;;;;19.03;45.33;99490.04;2150715;83;20985;-78
2021/05/24 06:41:28;;;;;;;10.15;3.20;;;;;;;18.96;45.37;99487.03;2164205;82;20962;-77
2021/05/24 06:44:29;;;;;;;7.30;2.80;;;;;;;19.23;45.08;99484.08;2149730;83;20965;-78
2021/05/24 06:47:30;;;;;;;8.30;3.30;;;;;;;19.28;43.42;99475.63;2164142;82;21019;-80
2021/05/24 06:50:31;;;;;;;4.42;2.95;;;;;;;19.39;43.88;99484.30;2151255;83;20929;-79
2021/05/24 06:53:32;;;;;;;19.82;3.37;;;;;;;19.03;44.79;99488.27;2164690;82;20970;-79
2021/05/24 06:56:34;;;;;;;16.75;4.22;;;;;;;18.91;44.86;99486.22;2151324;83;20893;-78
2021/05/24 06:59:38;;;;;;;3.58;2.50;;;;;;;18.93;44.98;99490.59;2164904;82;21330;-78
2021/05/24 07:02:39;;;;;;;4.30;2.40;;;;;;;19.04;44.76;99493.98;2151374;83;21436;-78
2021/05/24 07:05:42;;;;;;;3.98;3.02;;;;;;;19.11;44.22;99491.30;2165950;82;21131;-81
2021/05/24 07:08:43;;;;;;;11.08;2.95;;;;;;;19.09;45.19;99497.94;2151181;83;20952;-81
2021/05/24 07:11:44;;;;;;;6.20;2.92;;;;;;;19.15;45.44;99499.63;2164458;82;21343;-81
2021/05/24 07:14:50;;;;;;;38.10;22.73;;;;;;;19.31;45.32;99497.22;2151965;83;21020;-80
2021/05/24 07:17:48;;;;;;;8.05;3.02;;;;;;;19.47;45.63;99500.09;2165385;82;21434;-82
2021/05/24 07:20:49;;;;;;;5.20;2.87;;;;;;;19.40;44.84;99503.71;2152085;83;20940;-80
2021/05/24 07:23:50;;;;;;;5.45;2.95;;;;;;;19.55;44.87;99507.51;2166007;82;21014;-83
2021/05/24 07:26:54;;;;;;;11.60;2.92;;;;;;;19.76;44.89;99512.07;2151533;83;20930;-81
2021/05/24 07:29:53;;;;;;;5.08;2.35;;;;;;;19.88;44.26;99506.14;2165547;82;20963;-82
2021/05/24 07:32:54;;;;;;;5.95;2.67;;;;;;;20.09;43.77;99509.39;2152053;83;21005;-82
2021/05/24 07:35:55;;;;;;;13.55;3.00;;;;;;;19.91;43.05;99507.87;2165432;82;20955;-81
2021/05/24 07:38:56;;;;;;;6.17;2.12;;;;;;;19.95;42.85;99506.95;2151955;83;20949;-79
2021/05/24 07:42:00;;;;;;;3.67;1.90;;;;;;;20.22;41.89;99506.51;2165541;82;21083;-82
2021/05/24 07:45:00;;;;;;;5.42;2.15;;;;;;;20.38;41.37;99507.57;2151372;83;21431;-81
2021/05/24 07:48:00;;;;;;;6.87;2.52;;;;;;;20.63;40.98;99510.25;2164585;82;20927;-82
2021/05/24 07:51:03;;;;;;;5.58;2.22;;;;;;;20.71;40.68;99503.02;2152079;83;21263;-81
2021/05/24 07:54:04;;;;;;;4.30;2.22;;;;;;;20.82;40.59;99507.70;2166040;82;20991;-80
2021/05/24 07:57:06;;;;;;;18.77;3.65;;;;;;;20.95;40.44;99504.36;2151157;83;20989;-80
2021/05/24 08:00:07;;;;;;;9.13;2.35;;;;;;;21.25;40.50;99494.94;2163761;82;21382;-80
2021/05/24 08:03:08;;;;;;;2.67;1.90;;;;;;;21.33;39.45;99501.41;2151078;83;21108;-83
2021/05/24 08:06:09;;;;;;;23.80;15.38;;;;;;;21.39;39.99;99500.83;2165766;82;20927;-80
2021/05/24 08:09:10;;;;;;;2.62;2.27;;;;;;;21.47;39.73;99492.69;2152634;83;21028;-81
2021/05/24 08:12:11;;;;;;;2.00;1.82;;;;;;;21.23;40.05;99488.33;2151815;83;20973;-82
2021/05/24 08:15:12;;;;;;;7.53;2.40;;;;;;;21.38;40.13;99489.78;2150901;83;21348;-80
2021/05/24 08:18:13;;;;;;;4.75;2.40;;;;;;;21.51;39.61;99481.97;2151362;83;20993;-82
2021/05/24 08:21:14;;;;;;;4.80;2.00;;;;;;;21.71;38.63;99474.03;2151562;83;20941;-81
2021/05/24 08:24:15;;;;;;;1.60;1.47;;;;;;;21.71;38.38;99480.22;2151483;83;21080;-79
2021/05/24 08:27:16;;;;;;;3.95;2.40;;;;;;;21.57;37.46;99487.59;2151758;83;20976;-80
2021/05/24 08:30:17;;;;;;;3.45;2.00;;;;;;;21.38;38.67;99492.89;2151594;83;21117;-81
2021/05/24 08:33:21;;;;;;;4.43;2.00;;;;;;;21.57;38.41;99495.11;2126610;83;20980;-81
2021/05/24 08:36:22;;;;;;;1.75;1.52;;;;;;;21.58;39.10;99478.26;2151405;83;21331;-81
2021/05/24 08:39:23;;;;;;;6.33;1.95;;;;;;;21.61;38.03;99476.86;2151270;83;21380;-80
2021/05/24 08:42:28;;;;;;;9.70;1.90;;;;;;;21.35;38.58;99469.93;2151629;83;20917;-82
2021/05/24 08:45:26;;;;;;;2.70;1.57;;;;;;;21.64;38.00;99475.92;2151336;83;20973;-80
2021/05/24 08:48:27;;;;;;;3.05;1.72;;;;;;;21.87;37.61;99487.38;2151349;83;20953;-80
2021/05/24 08:51:30;;;;;;;8.50;1.73;;;;;;;21.93;37.30;99462.85;2126701;83;20961;-80
2021/05/24 08:54:31;;;;;;;2.40;1.87;;;;;;;21.86;37.47;99474.99;2151482;83;21101;-80
2021/05/24 08:57:32;;;;;;;4.10;2.10;;;;;;;22.03;37.63;99479.94;2151286;83;20992;-81
2021/05/24 09:00:33;;;;;;;6.25;2.17;;;;;;;22.35;37.47;99476.47;2151677;82;21006;-80
2021/05/24 09:03:35;;;;;;;6.00;2.00;;;;;;;22.56;36.71;99467.50;2150991;82;21051;-79
2021/05/24 09:06:36;;;;;;;16.52;10.50;;;;;;;22.22;35.95;99468.80;2151221;83;20959;-80
2021/05/24 09:09:37;;;;;;;7.30;3.65;;;;;;;22.04;36.45;99471.92;2188877;81;21017;-80
2021/05/24 09:12:37;;;;;;;5.62;2.40;;;;;;;21.98;36.07;99459.20;2151225;83;20954;-79
2021/05/24 09:15:40;;;;;;;5.83;2.12;;;;;;;22.06;36.33;99448.83;2188610;81;21037;-79
2021/05/24 09:18:40;;;;;;;8.10;2.55;;;;;;;22.13;35.85;99442.45;2150905;83;21014;-79
2021/05/24 09:21:42;;;;;;;2.37;1.65;;;;;;;22.43;36.31;99442.10;2187564;81;21298;-80
2021/05/24 09:24:42;;;;;;;2.02;1.30;;;;;;;22.66;34.32;99429.99;2149861;83;21004;-81
2021/05/24 09:27:43;;;;;;;5.90;3.75;;;;;;;22.61;34.13;99431.91;2187530;81;20950;-80
2021/05/24 09:30:44;;;;;;;3.62;2.67;;;;;;;22.48;33.71;99419.37;2150167;83;20962;-80
2021/05/24 09:33:45;;;;;;;25.32;2.17;;;;;;;22.51;33.38;99412.17;2188377;81;20962;-82
2021/05/24 09:36:46;;;;;;;2.30;1.50;;;;;;;22.58;33.44;99422.69;2151002;83;21037;-81
2021/05/24 09:39:47;;;;;;;11.30;2.58;;;;;;;22.60;33.70;99428.83;2188911;81;20907;-81
2021/05/24 09:42:49;;;;;;;3.85;1.60;;;;;;;22.86;32.88;99417.03;2151169;83;21354;-82
2021/05/24 09:45:53;;;;;;;4.83;1.40;;;;;;;23.11;32.15;99438.02;2188593;81;21314;-80
2021/05/24 09:48:53;;;;;;;12.47;1.70;;;;;;;23.34;32.01;99434.66;2151356;83;21006;-81
2021/05/24 09:51:54;;;;;;;12.10;2.25;;;;;;;23.33;31.74;99434.25;2187467;81;21038;-81
2021/05/24 09:54:55;;;;;;;9.20;1.82;;;;;;;23.15;32.05;99430.81;2151261;83;21313;-81
2021/05/24 09:57:56;;;;;;;6.95;3.20;;;;;;;22.97;31.69;99430.90;2188750;81;21050;-79
2021/05/24 10:01:29;;;;;;;4.62;1.98;;;;;;;22.72;31.97;99432.02;2147318;81;21098;-81
2021/05/24 10:04:05;;;;;;;8.73;2.00;;;;;;;22.84;32.49;99422.39;2167925;82;21045;-80
2021/05/24 10:07:06;;;;;;;3.45;1.80;;;;;;;23.04;32.82;99427.59;2139868;83;20938;-79
2021/05/24 10:10:07;;;;;;;2.90;1.57;;;;;;;23.19;32.54;99417.81;2171351;82;20954;-80
2021/05/24 10:13:08;;;;;;;2.27;1.50;;;;;;;23.43;32.25;99417.56;2139482;83;20942;-80
2021/05/24 10:16:12;;;;;;;2.20;1.50;;;;;;;23.43;32.76;99419.77;2171561;82;21291;-82
2021/05/24 10:19:14;;;;;;;5.90;1.67;;;;;;;23.24;32.68;99413.69;2139813;83;21038;-81
2021/05/24 10:22:14;;;;;;;3.35;1.85;;;;;;;23.04;33.66;99408.96;2171350;82;21270;-83
2021/05/24 10:25:15;;;;;;;26.25;2.92;;;;;;;22.72;34.37;99394.77;2139590;83;21042;-81
2021/05/24 10:28:17;;;;;;;4.47;1.80;;;;;;;22.57;34.28;99385.89;2171501;82;21026;-80
2021/05/24 10:31:17;;;;;;;1.35;1.27;;;;;;;22.70;34.41;99394.40;2139985;83;20955;-82
2021/05/24 10:34:19;;;;;;;1.55;1.45;;;;;;;22.95;34.55;99402.12;2170953;82;21042;-81
2021/05/24 10:37:21;;;;;;;3.67;1.80;;;;;;;22.90;34.18;99399.17;2139888;83;20982;-80
2021/05/24 10:40:22;;;;;;;5.85;1.47;;;;;;;23.11;34.24;99389.22;2171949;82;21025;-80
2021/05/24 10:43:23;;;;;;;3.65;1.50;;;;;;;23.13;33.94;99385.59;2138648;82;20966;-82
2021/05/24 10:46:24;;;;;;;5.58;1.77;;;;;;;23.26;33.59;99371.44;2171292;82;20911;-81
2021/05/24 10:49:25;;;;;;;10.15;5.50;;;;;;;23.14;33.71;99381.14;2139581;83;20943;-80
2021/05/24 10:52:26;;;;;;;19.02;4.80;;;;;;;23.30;34.07;99382.87;2170743;82;20976;-82
2021/05/24 10:55:27;;;;;;;8.43;2.02;;;;;;;23.43;33.73;99372.27;2139231;83;20942;-80
2021/05/24 10:58:28;;;;;;;2.45;1.70;;;;;;;23.59;33.73;99374.02;2171603;82;21026;-80
2021/05/24 11:01:29;;;;;;;19.77;2.98;;;;;;;23.47;33.19;99372.12;2143718;83;20990;-80
2021/05/24 11:04:30;;;;;;;4.20;1.87;;;;;;;23.42;33.47;99371.40;2187964;81;21021;-80
2021/05/24 11:07:32;;;;;;;3.00;1.85;;;;;;;23.39;33.08;99362.14;2150596;83;20974;-78
2021/05/24 11:10:34;;;;;;;8.85;2.25;;;;;;;23.36;32.94;99365.36;2187980;81;21009;-80
2021/05/24 11:13:34;;;;;;;1.82;1.70;;;;;;;23.27;33.21;99353.20;2150236;83;20965;-80
2021/05/24 11:16:35;;;;;;;3.62;1.95;;;;;;;23.31;33.03;99353.52;2187691;81;21002;-79
2021/05/24 11:19:36;;;;;;;4.53;1.85;;;;;;;23.31;32.63;99351.31;2150002;83;20926;-81
2021/05/24 11:22:45;;;;;;;4.28;1.70;;;;;;;23.31;32.68;99345.98;2187136;81;21006;-83
2021/05/24 11:25:59;;;;;;;6.22;2.00;;;;;;;23.56;33.24;99352.33;2149084;82;20986;-79
2021/05/24 11:28:52;;;;;;;2.22;1.62;;;;;;;23.72;32.62;99337.58;2185066;81;21313;-81
2021/05/24 11:31:53;;;;;;;4.30;2.55;;;;;;;23.89;32.09;99331.67;2149526;83;20966;-80
2021/05/24 11:34:54;;;;;;;2.45;1.82;;;;;;;24.02;31.70;99311.65;2187052;81;21069;-83
2021/05/24 11:37:55;;;;;;;14.78;2.65;;;;;;;23.97;32.28;99324.27;2149577;83;20981;-80
2021/05/24 11:40:56;;;;;;;27.30;3.22;;;;;;;23.74;32.30;99322.86;2187918;81;21065;-81
2021/05/24 11:43:59;;;;;;;3.42;2.02;;;;;;;23.83;32.37;99315.88;2149860;83;21143;-83
2021/05/24 11:47:19;;;;;;;6.85;1.65;;;;;;;23.98;31.98;99314.48;2187206;81;20946;-80
2021/05/24 11:50:20;;;;;;;3.67;2.02;;;;;;;24.08;32.26;99306.10;2150074;83;20969;-79
2021/05/24 11:53:22;;;;;;;3.85;1.75;;;;;;;24.24;32.07;99299.75;2187987;81;21009;-81
2021/05/24 11:56:23;;;;;;;5.05;1.80;;;;;;;24.07;31.75;99307.48;2150568;83;21408;-79
2021/05/24 11:59:24;;;;;;;7.12;5.08;;;;;;;23.85;32.44;99311.38;2187743;81;21386;-81
2021/05/24 12:02:25;;;;;;;2.52;1.67;;;;;;;23.87;32.37;99312.19;2144115;83;21041;-80
2021/05/24 12:05:26;;;;;;;2.95;1.50;;;;;;;23.75;31.76;99319.27;2171363;82;21100;-80
2021/05/24 12:08:27;;;;;;;5.05;2.00;;;;;;;23.74;31.99;99313.08;2139609;83;20962;-82
2021/05/24 12:11:28;;;;;;;6.37;1.67;;;;;;;23.78;32.52;99304.52;2170050;82;20998;-80
2021/05/24 12:14:29;;;;;;;3.40;1.30;;;;;;;23.88;32.58;99310.39;2138204;83;20943;-82
2021/05/24 12:17:30;;;;;;;11.57;2.65;;;;;;;24.08;31.60;99302.09;2170154;82;21062;-82
2021/05/24 12:20:31;;;;;;;3.77;1.47;;;;;;;24.41;31.47;99300.53;2138477;83;20969;-79
2021/05/24 12:23:33;;;;;;;1.37;1.15;;;;;;;24.53;30.75;99305.88;2170116;82;21125;-84
2021/05/24 12:26:34;;;;;;;3.75;1.80;;;;;;;24.55;30.80;99303.55;2139619;83;21002;-81
2021/05/24 12:29:35;;;;;;;2.67;1.30;;;;;;;24.65;31.49;99296.94;2171923;82;21021;-80
2021/05/24 12:32:36;;;;;;;21.42;3.30;;;;;;;24.35;31.91;99290.09;2139935;83;20954;-82
2021/05/24 12:35:37;;;;;;;6.95;5.83;;;;;;;24.25;32.16;99282.82;2170448;82;20939;-80
2021/05/24 12:38:49;;;;;;;3.67;2.10;;;;;;;23.98;32.25;99266.48;2137889;83;20950;-81
2021/05/24 12:41:50;;;;;;;4.25;1.50;;;;;;;23.87;32.67;99256.20;2170000;82;20978;-81
2021/05/24 12:44:51;;;;;;;1.25;1.15;;;;;;;23.70;32.95;99259.47;2138510;83;21065;-82
2021/05/24 12:47:52;;;;;;;1.72;1.30;;;;;;;23.95;32.92;99247.47;2170140;82;20923;-81
2021/05/24 12:50:53;;;;;;;7.72;1.90;;;;;;;24.03;32.47;99240.52;2138853;83;20959;-81
2021/05/24 12:53:55;;;;;;;3.50;1.42;;;;;;;23.88;32.75;99247.28;2170506;82;20959;-82
2021/05/24 12:56:56;;;;;;;20.23;6.87;;;;;;;23.79;32.58;99248.48;2138544;83;20927;-82
2021/05/24 12:59:57;;;;;;;12.58;3.35;;;;;;;23.87;33.08;99246.87;2170613;82;20947;-82
2021/05/24 13:02:57;;;;;;;10.60;2.25;;;;;;;23.95;32.79;99238.60;2138563;82;21022;-80
2021/05/24 13:05:58;;;;;;;6.72;2.30;;;;;;;24.14;33.00;99238.34;2170459;82;21040;-82
2021/05/24 13:09:03;;;;;;;2.67;1.50;;;;;;;24.24;32.34;99236.20;2138918;83;20983;-81
2021/05/24 13:12:06;;;;;;;3.40;1.10;;;;;;;24.19;32.42;99244.37;2170580;82;21014;-82
2021/05/24 13:15:07;;;;;;;7.50;2.47;;;;;;;24.26;32.43;99226.34;2138870;83;21069;-81
2021/05/24 13:18:14;;;;;;;3.00;1.30;;;;;;;24.12;32.52;99214.39;2170404;82;20935;-81
2021/05/24 13:24:42;;;;;;;8.03;2.33;;;;;;;24.00;33.28;99209.52;2146909;82;20995;-81
2021/05/24 13:30:49;;;;;;;2.50;1.65;;;;;;;24.09;32.95;99206.50;2169507;82;20954;-83
2021/05/24 13:33:49;;;;;;;1.67;1.13;;;;;;;24.61;31.75;99199.23;2138283;83;21441;-82
2021/05/24 13:36:50;;;;;;;2.55;1.52;;;;;;;24.84;31.18;99192.10;2170223;82;20998;-81
2021/05/24 13:39:51;;;;;;;2.22;1.50;;;;;;;24.97;31.10;99189.33;2138810;83;21031;-81
2021/05/24 13:42:52;;;;;;;8.63;3.65;;;;;;;24.74;31.26;99196.95;2170318;82;20990;-81
2021/05/24 13:45:53;;;;;;;5.28;2.30;;;;;;;24.53;32.78;99203.13;2138811;83;21030;-82
2021/05/24 13:48:54;;;;;;;4.15;1.65;;;;;;;24.47;32.63;99194.90;2170467;82;20966;-82
2021/05/24 13:51:56;;;;;;;9.35;4.62;;;;;;;24.44;32.80;99199.02;2138938;83;21026;-82
2021/05/24 13:54:57;;;;;;;5.65;3.05;;;;;;;24.21;32.79;99189.17;2170299;82;20981;-79
2021/05/24 13:57:58;;;;;;;3.50;1.75;;;;;;;24.15;33.25;99189.41;2138645;83;20927;-80
2021/05/24 14:00:59;;;;;;;3.98;1.52;;;;;;;24.35;33.31;99175.37;2170261;82;21038;-81
2021/05/24 14:04:00;;;;;;;3.98;1.30;;;;;;;24.50;33.09;99178.77;2138237;83;21121;-80
2021/05/24 14:07:01;;;;;;;2.60;1.60;;;;;;;24.43;32.45;99168.80;2169340;82;20997;-80
2021/05/24 14:10:02;;;;;;;10.32;1.90;;;;;;;23.99;32.55;99175.77;2137817;83;20994;-81
2021/05/24 14:13:03;;;;;;;10.78;7.80;;;;;;;23.72;33.36;99182.12;2169260;82;20942;-79
2021/05/24 14:16:10;;;;;;;299.50;25.55;;;;;;;23.42;34.13;99178.25;2137594;82;21417;-79
2021/05/24 14:19:07;;;;;;;3.75;1.90;;;;;;;23.70;34.68;99177.31;2170391;82;20958;-81
2021/05/24 14:22:08;;;;;;;8.55;2.27;;;;;;;24.07;34.16;99164.36;2138244;83;21319;-82
2021/05/24 14:25:09;;;;;;;2.50;1.57;;;;;;;23.79;33.97;99157.85;2170434;82;20963;-81